createdAt,value
2022-11-02T00:00:31.055Z,11.50
2022-11-02T00:02:58.716Z,11.50
2022-11-02T00:05:26.613Z,11.45
2022-11-02T00:07:55.550Z,11.51
2022-11-02T00:10:24.521Z,11.44
2022-11-02T00:12:54.479Z,11.52
2022-11-02T00:15:23.157Z,11.48
2022-11-02T00:17:52.081Z,11.44
2022-11-02T00:20:21.555Z,11.36
2022-11-02T00:22:52.558Z,11.43
2022-11-02T00:25:24.393Z,11.36
2022-11-02T00:27:53.728Z,11.30
2022-11-02T00:30:21.305Z,11.41
2022-11-02T00:32:48.862Z,11.51
2022-11-02T00:35:16.643Z,11.47
2022-11-02T00:37:44.213Z,11.55
2022-11-02T00:40:12.561Z,11.54
2022-11-02T00:42:40.166Z,11.60
2022-11-02T00:45:10.455Z,11.61
2022-11-02T00:47:38.424Z,11.70
2022-11-02T00:50:07.200Z,11.76
2022-11-02T00:52:34.619Z,11.72
2022-11-02T00:55:02.119Z,11.70
2022-11-02T00:57:29.733Z,11.72
2022-11-02T00:59:57.307Z,11.66
2022-11-02T01:02:26.341Z,11.50
2022-11-02T01:04:54.000Z,11.32
2022-11-02T01:07:21.560Z,11.30
2022-11-02T01:09:49.234Z,11.11
2022-11-02T01:12:16.973Z,11.05
2022-11-02T01:14:45.148Z,10.96
2022-11-02T01:17:12.698Z,10.93
2022-11-02T01:19:41.811Z,10.82
2022-11-02T01:22:09.438Z,10.76
2022-11-02T01:24:37.489Z,10.64
2022-11-02T01:27:05.083Z,10.61
2022-11-02T01:29:32.644Z,10.74
2022-11-02T01:32:00.213Z,10.64
2022-11-02T01:34:27.805Z,10.57
2022-11-02T01:36:56.738Z,10.55
2022-11-02T01:39:24.260Z,10.48
2022-11-02T01:41:52.981Z,10.38
2022-11-02T01:44:28.129Z,10.34
2022-11-02T01:47:00.088Z,10.34
2022-11-02T01:49:28.745Z,10.31
2022-11-02T01:52:01.245Z,10.24
2022-11-02T01:54:37.865Z,10.15
2022-11-02T01:57:07.421Z,10.00
2022-11-02T01:59:39.584Z,9.96
2022-11-02T02:02:12.738Z,10.04
2022-11-02T02:04:40.595Z,9.94
2022-11-02T02:07:09.643Z,9.94
2022-11-02T02:09:37.442Z,9.86
2022-11-02T02:12:06.898Z,9.84
2022-11-02T02:14:35.467Z,9.84
2022-11-02T02:17:18.287Z,9.84
2022-11-02T02:19:52.947Z,9.77
2022-11-02T02:22:58.286Z,9.83
2022-11-02T02:25:52.559Z,9.81
2022-11-02T02:28:31.296Z,9.84
2022-11-02T02:31:02.395Z,9.91
2022-11-02T02:33:35.117Z,9.93
2022-11-02T02:36:07.869Z,9.99
2022-11-02T02:38:42.835Z,10.02
2022-11-02T02:41:14.416Z,10.10
2022-11-02T02:43:47.604Z,10.14
2022-11-02T02:46:22.409Z,10.22
2022-11-02T02:48:52.767Z,10.36
2022-11-02T02:51:23.799Z,10.29
2022-11-02T02:53:58.936Z,10.36
2022-11-02T02:56:29.135Z,10.35
2022-11-02T02:59:02.319Z,10.37
2022-11-02T03:01:30.223Z,10.37
2022-11-02T03:03:57.834Z,10.46
2022-11-02T03:06:28.972Z,10.46
2022-11-02T03:09:07.153Z,10.43
2022-11-02T03:11:39.745Z,10.61
2022-11-02T03:14:22.704Z,10.62
2022-11-02T03:17:11.048Z,10.66
2022-11-02T03:19:45.811Z,10.74
2022-11-02T03:22:22.210Z,10.83
2022-11-02T03:25:00.221Z,10.88
2022-11-02T03:27:38.976Z,10.81
2022-11-02T03:30:10.028Z,10.78
2022-11-02T03:32:42.644Z,10.75
2022-11-02T03:35:17.485Z,10.70
2022-11-02T03:37:50.973Z,10.75
2022-11-02T03:40:22.652Z,10.71
2022-11-02T03:42:52.931Z,10.74
2022-11-02T03:45:25.179Z,10.70
2022-11-02T03:47:56.850Z,10.69
2022-11-02T03:50:25.124Z,10.73
2022-11-02T03:53:01.935Z,10.78
2022-11-02T03:55:34.141Z,10.83
2022-11-02T03:58:01.970Z,10.89
2022-11-02T04:00:35.096Z,10.85
2022-11-02T04:03:04.244Z,10.82
2022-11-02T04:05:34.180Z,10.78
2022-11-02T04:08:19.896Z,10.80
2022-11-02T04:11:05.766Z,10.71
2022-11-02T04:13:51.825Z,10.77
2022-11-02T04:16:26.769Z,10.73
2022-11-02T04:19:13.334Z,10.76
2022-11-02T04:21:41.005Z,10.73
2022-11-02T04:24:27.272Z,10.66
2022-11-02T04:26:54.837Z,10.67
2022-11-02T04:29:22.434Z,10.66
2022-11-02T04:31:51.324Z,10.60
2022-11-02T04:34:17.880Z,10.58
2022-11-02T04:36:45.422Z,10.59
2022-11-02T04:39:12.000Z,10.64
2022-11-02T04:41:42.603Z,10.71
2022-11-02T04:44:11.205Z,10.67
2022-11-02T04:46:40.017Z,10.63
2022-11-02T04:49:09.339Z,10.66
2022-11-02T04:51:37.151Z,10.66
2022-11-02T04:54:04.966Z,10.59
2022-11-02T04:56:32.676Z,10.61
2022-11-02T04:59:01.490Z,10.64
2022-11-02T05:01:30.164Z,10.69
2022-11-02T05:03:58.123Z,10.61
2022-11-02T05:06:27.170Z,10.60
2022-11-02T05:08:54.773Z,10.55
2022-11-02T05:11:22.480Z,10.51
2022-11-02T05:13:50.031Z,10.51
2022-11-02T05:16:18.194Z,10.47
2022-11-02T05:18:45.805Z,10.46
2022-11-02T05:21:14.032Z,10.44
2022-11-02T05:23:42.954Z,10.48
2022-11-02T05:26:12.542Z,10.52
2022-11-02T05:28:40.445Z,10.51
2022-11-02T05:31:08.069Z,10.50
2022-11-02T05:33:36.139Z,10.55
2022-11-02T05:36:03.857Z,10.56
2022-11-02T05:38:31.465Z,10.55
2022-11-02T05:41:01.284Z,10.62
2022-11-02T05:43:28.953Z,10.63
2022-11-02T05:45:57.988Z,10.67
2022-11-02T05:48:26.760Z,10.65
2022-11-02T05:50:55.990Z,10.73
2022-11-02T05:53:24.056Z,10.66
2022-11-02T05:55:52.030Z,10.71
2022-11-02T05:58:21.032Z,10.66
2022-11-02T06:00:48.617Z,10.65
2022-11-02T06:03:17.457Z,10.50
2022-11-02T06:05:45.217Z,10.57
2022-11-02T06:08:12.967Z,10.45
2022-11-02T06:10:42.812Z,10.45
2022-11-02T06:13:10.807Z,10.45
2022-11-02T06:15:39.859Z,10.37
2022-11-02T06:18:07.816Z,10.35
2022-11-02T06:20:35.498Z,10.39
2022-11-02T06:23:03.607Z,10.34
2022-11-02T06:25:31.566Z,10.29
2022-11-02T06:27:59.272Z,10.30
2022-11-02T06:30:27.583Z,10.39
2022-11-02T06:32:56.566Z,10.42
2022-11-02T06:35:24.495Z,10.44
2022-11-02T06:37:52.124Z,10.36
2022-11-02T06:40:22.582Z,10.35
2022-11-02T06:43:15.237Z,10.26
2022-11-02T06:45:43.904Z,10.27
2022-11-02T06:48:12.827Z,10.44
2022-11-02T06:50:40.495Z,10.42
2022-11-02T06:53:08.354Z,10.43
2022-11-02T06:55:36.085Z,10.44
2022-11-02T06:58:03.690Z,10.44
2022-11-02T07:00:31.505Z,10.48
2022-11-02T07:03:02.850Z,10.49
2022-11-02T07:05:32.145Z,10.51
2022-11-02T07:08:00.160Z,10.56
2022-11-02T07:10:29.168Z,10.55
2022-11-02T07:12:58.191Z,10.52
2022-11-02T07:15:27.120Z,10.61
2022-11-02T07:17:55.105Z,10.61
2022-11-02T07:20:23.004Z,10.54
2022-11-02T07:22:56.090Z,10.59
2022-11-02T07:25:25.529Z,10.68
2022-11-02T07:27:53.091Z,10.54
2022-11-02T07:30:21.004Z,10.52
2022-11-02T07:32:48.588Z,10.55
2022-11-02T07:35:17.348Z,10.62
2022-11-02T07:37:44.808Z,10.71
2022-11-02T07:40:15.061Z,10.65
2022-11-02T07:42:46.512Z,10.61
2022-11-02T07:45:14.429Z,10.69
2022-11-02T07:47:45.946Z,10.72
2022-11-02T07:50:14.160Z,10.79
2022-11-02T07:52:45.928Z,10.76
2022-11-02T07:55:16.303Z,10.84
2022-11-02T07:57:43.952Z,10.92
2022-11-02T08:00:12.671Z,10.90
2022-11-02T08:02:40.221Z,10.85
2022-11-02T08:05:08.470Z,10.92
2022-11-02T08:07:36.009Z,10.90
2022-11-02T08:10:03.625Z,11.09
2022-11-02T08:12:32.590Z,11.03
2022-11-02T08:15:04.729Z,11.08
2022-11-02T08:17:34.845Z,11.18
2022-11-02T08:20:02.444Z,11.16
2022-11-02T08:22:30.015Z,11.16
2022-11-02T08:24:57.569Z,11.25
2022-11-02T08:27:25.127Z,11.32
2022-11-02T08:29:54.105Z,11.39
2022-11-02T08:32:21.661Z,11.40
2022-11-02T08:34:49.261Z,11.45
2022-11-02T08:37:16.801Z,11.53
2022-11-02T08:39:44.385Z,11.61
2022-11-02T08:42:11.995Z,11.52
2022-11-02T08:44:42.471Z,11.58
2022-11-02T08:47:11.708Z,11.64
2022-11-02T08:49:39.237Z,11.68
2022-11-02T08:52:06.827Z,11.70
2022-11-02T08:54:34.611Z,11.70
2022-11-02T08:57:02.179Z,11.71
2022-11-02T08:59:29.767Z,11.68
2022-11-02T09:01:57.448Z,11.78
2022-11-02T09:04:26.797Z,11.84
2022-11-02T09:06:54.368Z,11.86
2022-11-02T09:09:22.010Z,11.90
2022-11-02T09:11:50.810Z,11.88
2022-11-02T09:14:18.287Z,11.99
2022-11-02T09:16:45.922Z,12.01
2022-11-02T09:19:13.499Z,12.08
2022-11-02T09:21:42.437Z,12.10
2022-11-02T09:24:10.796Z,12.18
2022-11-02T09:26:38.388Z,12.32
2022-11-02T09:29:06.090Z,12.35
2022-11-02T09:31:33.845Z,12.39
2022-11-02T09:34:01.444Z,12.40
2022-11-02T09:36:29.060Z,12.48
2022-11-02T09:38:58.032Z,12.54
2022-11-02T09:41:33.612Z,12.56
2022-11-02T09:44:04.662Z,12.63
2022-11-02T09:46:34.961Z,12.63
2022-11-02T09:49:06.113Z,12.64
2022-11-02T09:51:37.638Z,12.68
2022-11-02T09:54:17.288Z,12.67
2022-11-02T09:56:46.515Z,12.77
2022-11-02T09:59:16.378Z,12.77
2022-11-02T10:01:55.402Z,12.90
2022-11-02T10:04:58.562Z,12.91
2022-11-02T10:07:41.391Z,12.91
2022-11-02T10:10:15.953Z,13.01
2022-11-02T10:12:52.334Z,13.09
2022-11-02T10:15:23.562Z,13.07
2022-11-02T10:17:55.717Z,13.12
2022-11-02T10:20:27.487Z,13.08
2022-11-02T10:22:59.436Z,13.19
2022-11-02T10:25:28.565Z,13.28
2022-11-02T10:28:04.395Z,13.52
2022-11-02T10:30:33.217Z,13.61
2022-11-02T10:33:00.923Z,13.54
2022-11-02T10:35:51.497Z,13.39
2022-11-02T10:38:37.772Z,13.44
2022-11-02T10:41:20.442Z,13.51
2022-11-02T10:44:04.318Z,13.60
2022-11-02T10:46:55.980Z,13.72
2022-11-02T10:49:43.849Z,13.77
2022-11-02T10:52:15.407Z,13.65
2022-11-02T10:54:42.964Z,13.35
2022-11-02T10:57:13.856Z,13.19
2022-11-02T10:59:41.886Z,12.97
2022-11-02T11:02:14.455Z,12.78
2022-11-02T11:04:43.429Z,12.84
2022-11-02T11:07:17.551Z,12.74
2022-11-02T11:09:51.387Z,12.94
2022-11-02T11:12:22.711Z,13.03
2022-11-02T11:20:34.495Z,13.43
2022-11-02T11:23:11.082Z,13.69
2022-11-02T11:25:41.046Z,13.92
2022-11-02T11:28:23.512Z,14.18
2022-11-02T11:31:03.416Z,14.07
2022-11-02T11:33:33.000Z,14.06
2022-11-02T11:36:01.103Z,14.06
2022-11-02T11:38:29.056Z,14.04
2022-11-02T11:40:59.840Z,13.93
2022-11-02T11:43:38.220Z,13.86
2022-11-02T11:46:08.197Z,13.82
2022-11-02T11:48:39.131Z,13.86
2022-11-02T11:51:25.720Z,13.77
2022-11-02T11:54:22.129Z,13.71
2022-11-02T11:56:51.202Z,13.72
2022-11-02T11:59:30.287Z,13.64
2022-11-02T12:02:00.388Z,13.74
2022-11-02T12:04:30.214Z,13.68
2022-11-02T12:07:18.674Z,13.76
2022-11-02T12:09:50.280Z,13.59
2022-11-02T12:12:27.565Z,13.62
2022-11-02T12:15:07.147Z,13.74
2022-11-02T12:17:50.980Z,13.89
2022-11-02T12:20:36.890Z,13.96
2022-11-02T12:23:19.450Z,14.05
2022-11-02T12:25:55.151Z,14.07
2022-11-02T12:28:32.753Z,14.10
2022-11-02T12:31:11.915Z,14.08
2022-11-02T12:34:05.487Z,13.90
2022-11-02T12:37:26.081Z,13.80
2022-11-02T12:39:50.324Z,13.77
2022-11-02T12:42:26.930Z,13.58
2022-11-02T12:45:25.689Z,13.78
2022-11-02T12:47:58.489Z,13.77
2022-11-02T12:50:38.550Z,13.78
2022-11-02T12:53:22.043Z,13.82
2022-11-02T12:55:53.263Z,13.86
2022-11-02T12:58:23.047Z,13.82
2022-11-02T13:00:56.159Z,13.83
2022-11-02T13:03:34.928Z,13.86
2022-11-02T13:06:07.956Z,13.94
2022-11-02T13:08:41.252Z,13.83
2022-11-02T13:11:14.740Z,13.79
2022-11-02T13:13:47.513Z,13.81
2022-11-02T13:16:17.791Z,13.88
2022-11-02T13:18:49.666Z,13.96
2022-11-02T13:21:23.358Z,13.91
2022-11-02T13:23:54.606Z,13.85
2022-11-02T13:26:29.115Z,13.74
2022-11-02T13:29:01.108Z,13.80
2022-11-02T13:31:33.387Z,13.89
2022-11-02T13:34:06.662Z,13.74
2022-11-02T13:36:38.017Z,13.86
2022-11-02T13:39:13.444Z,13.89
2022-11-02T13:42:14.779Z,13.90
2022-11-02T13:45:16.153Z,13.81
2022-11-02T13:48:04.593Z,13.74
2022-11-02T13:50:40.013Z,13.78
2022-11-02T13:53:16.043Z,13.71
2022-11-02T13:55:47.554Z,13.78
2022-11-02T13:58:24.535Z,13.80
2022-11-02T14:00:54.411Z,13.60
2022-11-02T14:03:26.169Z,13.51
2022-11-02T14:05:58.307Z,13.54
2022-11-02T14:08:35.532Z,13.54
2022-11-02T14:11:06.764Z,13.71
2022-11-02T14:14:09.151Z,13.72
2022-11-02T14:16:47.739Z,13.68
2022-11-02T14:19:22.393Z,13.72
2022-11-02T14:25:17.787Z,13.67
2022-11-02T14:27:45.582Z,13.70
2022-11-02T14:30:48.833Z,13.67
2022-11-02T14:33:54.951Z,13.64
2022-11-02T14:36:40.851Z,13.62
2022-11-02T14:39:20.864Z,13.58
2022-11-02T14:42:05.358Z,13.62
2022-11-02T14:44:47.247Z,13.60
2022-11-02T14:47:17.322Z,13.62
2022-11-02T14:49:51.169Z,13.55
2022-11-02T14:52:27.809Z,13.65
2022-11-02T14:55:01.587Z,13.62
2022-11-02T14:57:35.100Z,13.57
2022-11-02T15:00:05.817Z,13.51
2022-11-02T15:02:40.247Z,13.39
2022-11-02T15:05:24.006Z,13.45
2022-11-02T15:07:55.041Z,13.41
2022-11-02T15:10:41.480Z,13.39
2022-11-02T15:13:48.659Z,13.33
2022-11-02T15:16:21.890Z,13.24
2022-11-02T15:18:49.488Z,13.20
2022-11-02T15:21:27.420Z,13.09
2022-11-02T15:24:20.786Z,13.04
2022-11-02T15:26:51.778Z,12.96
2022-11-02T15:29:44.360Z,12.90
2022-11-02T15:32:22.404Z,12.88
2022-11-02T15:34:51.784Z,12.80
2022-11-02T15:37:21.615Z,12.75
2022-11-02T15:39:50.485Z,12.71
2022-11-02T15:42:27.978Z,12.65
2022-11-02T15:45:34.072Z,12.65
2022-11-02T15:48:21.391Z,12.54
2022-11-02T15:50:57.706Z,12.60
2022-11-02T15:53:40.504Z,12.51
2022-11-02T15:56:34.586Z,12.50
2022-11-02T15:59:37.152Z,12.40
2022-11-02T16:02:23.740Z,12.35
2022-11-02T16:04:54.106Z,12.25
2022-11-02T16:07:29.157Z,12.27
2022-11-02T16:10:20.521Z,12.23
2022-11-02T16:12:48.403Z,12.20
2022-11-02T16:15:19.701Z,12.14
2022-11-02T16:17:50.678Z,12.03
2022-11-02T16:20:20.225Z,12.11
2022-11-02T16:22:49.779Z,12.08
2022-11-02T16:25:21.894Z,12.10
2022-11-02T16:27:49.946Z,12.10
2022-11-02T16:30:19.846Z,12.11
2022-11-02T16:32:52.387Z,12.03
2022-11-02T16:35:21.374Z,12.06
2022-11-02T16:37:50.410Z,12.11
2022-11-02T16:40:20.538Z,12.10
2022-11-02T16:42:49.429Z,12.12
2022-11-02T16:45:42.140Z,12.03
2022-11-02T16:48:26.340Z,12.08
2022-11-02T16:51:09.252Z,12.04
2022-11-02T16:53:42.062Z,12.07
2022-11-02T16:56:27.650Z,12.03
2022-11-02T16:59:01.347Z,12.01
2022-11-02T17:01:35.240Z,12.01
2022-11-02T17:04:15.400Z,11.96
2022-11-02T17:06:43.815Z,11.99
2022-11-02T17:09:22.790Z,11.89
2022-11-02T17:11:51.530Z,11.93
2022-11-02T17:14:19.639Z,11.90
2022-11-02T17:17:02.866Z,11.89
2022-11-02T17:19:47.490Z,11.82
2022-11-02T17:22:25.292Z,11.83
2022-11-02T17:25:12.960Z,11.74
2022-11-02T17:27:42.632Z,11.67
2022-11-02T17:30:44.563Z,11.68
2022-11-02T17:33:22.826Z,11.67
2022-11-02T17:35:54.304Z,11.66
2022-11-02T17:38:25.567Z,11.68
2022-11-02T17:40:54.092Z,11.69
2022-11-02T17:43:22.062Z,11.66
2022-11-02T17:45:55.857Z,11.59
2022-11-02T17:48:24.455Z,11.63
2022-11-02T17:50:55.708Z,11.60
2022-11-02T17:53:24.653Z,11.64
2022-11-02T17:55:52.600Z,11.59
2022-11-02T17:58:20.188Z,11.65
2022-11-02T18:00:48.024Z,11.64
2022-11-02T18:03:18.998Z,11.63
2022-11-02T18:05:50.161Z,11.57
2022-11-02T18:08:20.617Z,11.63
2022-11-02T18:10:51.078Z,11.57
2022-11-02T18:13:20.939Z,11.57
2022-11-02T18:15:48.696Z,11.57
2022-11-02T18:18:16.536Z,11.56
2022-11-02T18:20:44.115Z,11.55
2022-11-02T18:23:16.505Z,11.60
2022-11-02T18:25:45.450Z,11.51
2022-11-02T18:28:13.840Z,11.58
2022-11-02T18:30:43.798Z,11.59
2022-11-02T18:33:13.823Z,11.58
2022-11-02T18:35:42.252Z,11.53
2022-11-02T18:38:10.063Z,11.58
2022-11-02T18:40:37.680Z,11.55
2022-11-02T18:43:06.927Z,11.60
2022-11-02T18:45:34.899Z,11.59
2022-11-02T18:48:02.947Z,11.57
2022-11-02T18:50:30.811Z,11.53
2022-11-02T18:52:58.441Z,11.59
2022-11-02T18:55:26.085Z,11.61
2022-11-02T18:57:53.728Z,11.54
2022-11-02T19:00:22.802Z,11.57
2022-11-02T19:02:50.460Z,11.58
2022-11-02T19:05:43.805Z,11.59
2022-11-02T19:08:28.899Z,11.56
2022-11-02T19:10:56.649Z,11.56
2022-11-02T19:13:24.270Z,11.54
2022-11-02T19:15:53.302Z,11.57
2022-11-02T19:18:20.910Z,11.54
2022-11-02T19:20:48.607Z,11.52
2022-11-02T19:23:16.156Z,11.52
2022-11-02T19:25:50.081Z,11.45
2022-11-02T19:28:17.988Z,11.47
2022-11-02T19:30:45.624Z,11.43
2022-11-02T19:33:14.718Z,11.39
2022-11-02T19:35:42.318Z,11.38
2022-11-02T19:38:10.040Z,11.38
2022-11-02T19:40:37.876Z,11.40
2022-11-02T19:43:05.552Z,11.41
2022-11-02T19:45:33.336Z,11.36
2022-11-02T19:48:02.747Z,11.35
2022-11-02T19:50:31.887Z,11.35
2022-11-02T19:53:01.082Z,11.38
2022-11-02T19:55:29.692Z,11.39
2022-11-02T19:57:57.398Z,11.39
2022-11-02T20:00:25.012Z,11.36
2022-11-02T20:02:52.669Z,11.34
2022-11-02T20:05:20.421Z,11.36
2022-11-02T20:07:49.537Z,11.36
2022-11-02T20:10:17.200Z,11.36
2022-11-02T20:12:44.908Z,11.37
2022-11-02T20:15:12.518Z,11.34
2022-11-02T20:17:58.502Z,11.35
2022-11-02T20:20:28.057Z,11.41
2022-11-02T20:22:57.240Z,11.41
2022-11-02T20:25:25.795Z,11.40
2022-11-02T20:27:53.914Z,11.39
2022-11-02T20:30:22.271Z,11.38
2022-11-02T20:32:50.370Z,11.44
2022-11-02T20:35:22.695Z,11.46
2022-11-02T20:37:50.248Z,11.48
2022-11-02T20:40:19.223Z,11.51
2022-11-02T20:42:49.508Z,11.48
2022-11-02T20:45:17.809Z,11.52
2022-11-02T20:47:45.528Z,11.54
2022-11-02T20:50:16.667Z,11.52
2022-11-02T20:52:45.541Z,11.49
2022-11-02T20:55:13.365Z,11.53
2022-11-02T20:57:42.311Z,11.56
2022-11-02T21:00:11.555Z,11.54
2022-11-02T21:02:39.147Z,11.57
2022-11-02T21:05:07.380Z,11.54
2022-11-02T21:07:35.031Z,11.51
2022-11-02T21:10:02.918Z,11.55
2022-11-02T21:12:48.369Z,11.55
2022-11-02T21:15:17.581Z,11.54
2022-11-02T21:17:45.227Z,11.53
2022-11-02T21:20:33.222Z,11.53
2022-11-02T21:23:02.615Z,11.48
2022-11-02T21:25:30.534Z,11.52
2022-11-02T21:27:58.632Z,11.50
2022-11-02T21:30:28.200Z,11.49
2022-11-02T21:32:55.773Z,11.52
2022-11-02T21:35:23.943Z,11.50
2022-11-02T21:37:51.537Z,11.49
2022-11-02T21:40:19.247Z,11.47
2022-11-02T21:42:46.831Z,11.47
2022-11-02T21:45:17.981Z,11.44
2022-11-02T21:47:50.231Z,11.40
2022-11-02T21:50:18.061Z,11.39
2022-11-02T21:52:45.601Z,11.45
2022-11-02T21:55:13.258Z,11.44
2022-11-02T21:57:40.831Z,11.40
2022-11-02T22:00:10.363Z,11.41
2022-11-02T22:02:37.184Z,11.43
2022-11-02T22:05:06.821Z,11.41
2022-11-02T22:07:54.956Z,11.44
2022-11-02T22:10:22.737Z,11.44
2022-11-02T22:13:08.229Z,11.47
2022-11-02T22:15:38.418Z,11.47
2022-11-02T22:18:06.387Z,11.45
2022-11-02T22:20:35.418Z,11.41
2022-11-02T22:23:03.217Z,11.44
2022-11-02T22:25:30.940Z,11.39
2022-11-02T22:27:58.521Z,11.37
2022-11-02T22:30:26.049Z,11.38
2022-11-02T22:32:53.613Z,11.41
2022-11-02T22:35:21.170Z,11.36
2022-11-02T22:38:07.831Z,11.47
2022-11-02T22:40:35.394Z,11.36
2022-11-02T22:43:03.121Z,11.39
2022-11-02T22:45:30.783Z,11.32
2022-11-02T22:47:58.339Z,11.40
2022-11-02T22:50:27.894Z,11.36
2022-11-02T22:52:57.156Z,11.38
2022-11-02T22:55:24.755Z,11.33
2022-11-02T22:57:58.813Z,11.31
2022-11-02T23:00:27.669Z,11.34
2022-11-02T23:02:55.283Z,11.31
2022-11-02T23:05:22.862Z,11.31
2022-11-02T23:07:50.480Z,11.29
2022-11-02T23:10:33.388Z,11.28
2022-11-02T23:13:00.947Z,11.31
2022-11-02T23:15:30.135Z,11.25
2022-11-02T23:17:57.737Z,11.24
2022-11-02T23:20:24.319Z,11.27
2022-11-02T23:23:09.509Z,11.23
2022-11-02T23:25:38.405Z,11.21
2022-11-02T23:31:13.792Z,11.18
2022-11-02T23:33:41.754Z,11.14
2022-11-02T23:36:12.743Z,11.14
2022-11-02T23:38:58.366Z,11.17
2022-11-02T23:41:27.687Z,11.14
2022-11-02T23:44:11.213Z,11.14
2022-11-02T23:46:38.936Z,11.04
2022-11-02T23:49:06.500Z,11.11
2022-11-02T23:51:51.766Z,11.07
2022-11-02T23:54:36.748Z,11.07
2022-11-02T23:57:05.855Z,11.11
2022-11-02T23:59:33.495Z,11.08
